Time;durP1;ratioP1;P1;durP2;ratioP2;P2;SDS_P1;SDS_P2;PMS_P1;PMS_P2;Temp;Humidity;BMP_temperature;BMP_pressure;BME280_temperature;BME280_humidity;BME280_pressure;Samples;Min_cycle;Max_cycle;Signal;HPM_P1;HPM_P2
2022/10/20 00:01:13;;;;;;;1.83;1.10;;;13.40;85.80;;;;;;5008915;28;20205;-77
2022/10/20 00:03:41;;;;;;;0.90;0.90;;;13.40;85.80;;;;;;5007876;28;20245;-77
2022/10/20 00:06:11;;;;;;;2.10;1.30;;;13.40;86.00;;;;;;5008541;28;20193;-76
2022/10/20 00:08:39;;;;;;;1.10;1.00;;;13.40;86.10;;;;;;5008372;28;20275;-76
2022/10/20 00:11:06;;;;;;;0.80;0.80;;;13.40;86.40;;;;;;5009044;28;20665;-76
2022/10/20 00:13:34;;;;;;;1.10;1.10;;;13.40;86.70;;;;;;5007693;28;20205;-76
2022/10/20 00:16:03;;;;;;;1.23;0.80;;;13.40;86.90;;;;;;5006971;28;20284;-76
2022/10/20 00:18:31;;;;;;;0.97;0.87;;;13.40;87.10;;;;;;5007489;28;20300;-77
2022/10/20 00:20:58;;;;;;;0.80;0.80;;;13.40;87.10;;;;;;5009098;28;20203;-77
2022/10/20 00:23:26;;;;;;;0.83;0.73;;;13.40;87.20;;;;;;5008030;28;20206;-77
2022/10/20 00:26:01;;;;;;;0.80;0.80;;;13.40;87.50;;;;;;5008383;28;20283;-76
2022/10/20 00:28:28;;;;;;;1.10;1.00;;;13.30;87.40;;;;;;5005504;28;20198;-77
2022/10/20 00:30:56;;;;;;;1.07;0.97;;;13.40;87.70;;;;;;5007290;28;20209;-76
2022/10/20 00:33:25;;;;;;;2.40;1.40;;;13.40;87.70;;;;;;5006422;28;20197;-76
2022/10/20 00:35:53;;;;;;;1.23;1.13;;;13.40;87.90;;;;;;5007352;28;20210;-77
2022/10/20 00:38:20;;;;;;;1.20;1.10;;;13.40;88.00;;;;;;5006933;28;20208;-77
2022/10/20 00:40:47;;;;;;;1.07;0.97;;;13.40;88.00;;;;;;5004877;28;20202;-77
2022/10/20 00:43:16;;;;;;;0.80;0.80;;;13.30;88.00;;;;;;5006502;28;20212;-77
2022/10/20 00:45:45;;;;;;;0.90;0.90;;;13.40;88.20;;;;;;5008147;28;20198;-77
2022/10/20 00:48:17;;;;;;;1.07;0.97;;;13.40;88.20;;;;;;5005238;28;20561;-77
2022/10/20 00:50:50;;;;;;;1.10;1.00;;;13.40;88.30;;;;;;5007599;28;20209;-76
2022/10/20 00:53:18;;;;;;;1.63;1.13;;;13.30;88.30;;;;;;5024396;28;20201;-76
2022/10/20 00:55:48;;;;;;;1.30;1.20;;;13.30;88.40;;;;;;5011339;28;20288;-77
2022/10/20 00:58:16;;;;;;;1.30;1.20;;;13.30;88.60;;;;;;5011051;28;20197;-77
2022/10/20 01:00:45;;;;;;;1.43;1.23;;;13.30;88.70;;;;;;5010527;28;20234;-77
2022/10/20 01:03:16;;;;;;;1.20;1.10;;;13.30;88.80;;;;;;5012596;28;20276;-77
2022/10/20 01:05:44;;;;;;;1.53;1.20;;;13.30;88.70;;;;;;5010162;28;20208;-78
2022/10/20 01:08:12;;;;;;;1.60;1.30;;;13.30;88.90;;;;;;5010432;28;20196;-78
2022/10/20 01:10:47;;;;;;;1.20;1.10;;;13.30;89.00;;;;;;5012909;28;20187;-77
2022/10/20 01:13:23;;;;;;;1.30;1.10;;;13.30;89.20;;;;;;5011214;28;20206;-77
2022/10/20 01:15:59;;;;;;;1.80;1.30;;;13.20;89.20;;;;;;5012066;28;20281;-77
2022/10/20 01:18:31;;;;;;;5.37;1.40;;;13.20;89.50;;;;;;5009814;28;20215;-76
2022/10/20 01:21:35;;;;;;;1.20;1.10;;;13.20;89.80;;;;;;5012612;28;20211;-77
2022/10/20 01:24:44;;;;;;;0.93;0.90;;;13.20;89.90;;;;;;5007330;28;20198;-77
2022/10/20 01:27:31;;;;;;;1.43;1.07;;;13.20;90.00;;;;;;4947957;29;20211;-78
2022/10/20 01:30:06;;;;;;;1.37;1.17;;;13.20;90.30;;;;;;5009508;28;20211;-76
2022/10/20 01:32:45;;;;;;;1.10;0.80;;;13.20;90.00;;;;;;5009212;28;20196;-77
2022/10/20 01:35:20;;;;;;;1.27;1.17;;;13.20;90.00;;;;;;5011864;28;20208;-77
2022/10/20 01:37:52;;;;;;;1.03;0.93;;;13.20;90.10;;;;;;5005400;28;20197;-76
2022/10/20 01:40:27;;;;;;;1.30;1.07;;;13.20;90.00;;;;;;5008411;28;20308;-76
2022/10/20 01:42:59;;;;;;;0.90;0.90;;;13.20;90.00;;;;;;5007964;28;20193;-78
2022/10/20 01:45:30;;;;;;;0.80;0.80;;;13.20;90.00;;;;;;5006519;28;20192;-77
2022/10/20 01:47:59;;;;;;;1.60;1.17;;;13.20;89.80;;;;;;5010222;28;20201;-77
2022/10/20 01:50:27;;;;;;;0.93;0.90;;;13.20;89.80;;;;;;5008524;28;20200;-76
2022/10/20 01:52:56;;;;;;;1.30;1.20;;;13.20;89.80;;;;;;5007454;28;20197;-77
2022/10/20 01:55:24;;;;;;;0.90;0.83;;;13.20;89.70;;;;;;5011589;28;20208;-76
2022/10/20 01:58:13;;;;;;;1.13;1.03;;;13.20;89.70;;;;;;5010092;28;20534;-76
2022/10/20 02:00:41;;;;;;;0.90;0.90;;;13.20;89.90;;;;;;5011025;28;20216;-77
2022/10/20 02:03:31;;;;;;;3.27;0.93;;;13.10;89.90;;;;;;5010920;28;20207;-76
2022/10/20 02:06:09;;;;;;;1.10;1.00;;;13.10;90.00;;;;;;5009102;28;20197;-76
2022/10/20 02:08:43;;;;;;;2.10;1.27;;;13.10;90.00;;;;;;5006037;28;20632;-76
2022/10/20 02:11:18;;;;;;;1.07;0.97;;;13.20;90.00;;;;;;5010386;28;20573;-76
2022/10/20 02:13:48;;;;;;;0.90;0.90;;;13.20;89.90;;;;;;5009790;28;20202;-76
2022/10/20 02:16:25;;;;;;;1.10;1.00;;;13.20;89.70;;;;;;5009317;28;20200;-76
2022/10/20 02:18:53;;;;;;;1.40;0.90;;;13.20;89.50;;;;;;5006795;28;20204;-76
2022/10/20 02:21:20;;;;;;;0.97;0.87;;;13.20;89.60;;;;;;5011584;28;20207;-77
2022/10/20 02:23:50;;;;;;;1.20;1.10;;;13.20;89.70;;;;;;5008390;28;20265;-77
2022/10/20 02:26:21;;;;;;;1.40;1.10;;;13.10;89.80;;;;;;5010149;28;20342;-76
2022/10/20 02:28:54;;;;;;;1.30;1.07;;;13.10;89.90;;;;;;5008035;28;20303;-77
2022/10/20 02:31:22;;;;;;;0.80;0.80;;;13.10;89.80;;;;;;5010268;28;20201;-77
2022/10/20 02:33:50;;;;;;;1.00;1.00;;;13.10;89.90;;;;;;5005125;28;20208;-76
2022/10/20 02:36:19;;;;;;;1.50;1.10;;;13.00;89.80;;;;;;5007726;28;20208;-77
2022/10/20 02:38:46;;;;;;;1.17;1.03;;;13.00;89.70;;;;;;5009646;28;20279;-77
2022/10/20 02:41:14;;;;;;;1.07;0.93;;;13.00;89.70;;;;;;5009511;28;20222;-77
2022/10/20 02:43:41;;;;;;;1.00;0.87;;;13.00;89.50;;;;;;5008271;28;20603;-76
2022/10/20 02:46:09;;;;;;;1.47;1.00;;;13.00;89.30;;;;;;5010584;28;20252;-77
2022/10/20 02:48:37;;;;;;;1.30;1.10;;;13.00;89.10;;;;;;5007571;28;20199;-76
2022/10/20 02:51:05;;;;;;;1.60;0.80;;;13.00;89.00;;;;;;5008450;28;20198;-77
2022/10/20 02:53:32;;;;;;;1.80;0.97;;;12.90;88.90;;;;;;5005145;28;21019;-77
2022/10/20 02:56:00;;;;;;;1.03;0.93;;;12.80;88.70;;;;;;5009706;28;20498;-77
2022/10/20 02:58:27;;;;;;;0.97;0.90;;;12.80;88.60;;;;;;5008886;28;20299;-76
2022/10/20 03:00:54;;;;;;;0.87;0.87;;;12.80;88.40;;;;;;5006437;28;20250;-77
2022/10/20 03:03:23;;;;;;;1.23;1.13;;;12.80;88.30;;;;;;5008949;28;20192;-76
2022/10/20 03:05:50;;;;;;;1.40;1.13;;;12.80;88.30;;;;;;5010020;28;20188;-76
2022/10/20 03:08:17;;;;;;;1.40;1.10;;;12.80;88.10;;;;;;5010249;28;20209;-77
2022/10/20 03:10:44;;;;;;;1.27;1.17;;;12.80;88.20;;;;;;5010093;28;20349;-77
2022/10/20 03:13:13;;;;;;;0.90;0.90;;;12.80;88.10;;;;;;5010199;28;20187;-77
2022/10/20 03:15:40;;;;;;;1.50;1.00;;;12.80;88.10;;;;;;5008689;28;20206;-77
2022/10/20 03:18:07;;;;;;;1.50;1.20;;;12.80;88.00;;;;;;5009656;28;20187;-77
2022/10/20 03:20:36;;;;;;;1.20;0.93;;;12.70;87.80;;;;;;5006507;28;20218;-77
2022/10/20 03:23:03;;;;;;;0.90;0.90;;;12.70;87.70;;;;;;5007086;28;20191;-77
2022/10/20 03:25:31;;;;;;;0.87;0.87;;;12.70;87.70;;;;;;5008938;28;20223;-77
2022/10/20 03:27:59;;;;;;;1.07;0.93;;;12.70;87.70;;;;;;5006023;28;20679;-77
2022/10/20 03:30:27;;;;;;;1.17;1.07;;;12.70;87.60;;;;;;5007970;28;20239;-77
2022/10/20 03:32:55;;;;;;;2.50;1.00;;;12.70;87.50;;;;;;5006773;28;20230;-77
2022/10/20 03:35:22;;;;;;;3.77;1.20;;;12.70;87.40;;;;;;5007210;28;20200;-76
2022/10/20 03:37:51;;;;;;;0.87;0.83;;;12.70;87.50;;;;;;5008687;28;20203;-78
2022/10/20 03:40:18;;;;;;;1.80;1.10;;;12.70;87.40;;;;;;5009194;28;20212;-77
2022/10/20 03:42:46;;;;;;;1.37;1.20;;;12.70;87.30;;;;;;5008601;28;20282;-77
2022/10/20 03:45:13;;;;;;;2.87;1.00;;;12.70;87.30;;;;;;5006549;28;20204;-77
2022/10/20 03:47:40;;;;;;;3.00;1.27;;;12.70;87.10;;;;;;5008137;28;20219;-77
2022/10/20 03:50:08;;;;;;;1.60;0.97;;;12.70;87.00;;;;;;5005646;28;20297;-77
2022/10/20 03:52:35;;;;;;;1.50;0.87;;;12.70;86.90;;;;;;5006702;28;20296;-77
2022/10/20 03:55:05;;;;;;;1.17;0.90;;;12.70;86.90;;;;;;5007284;28;20526;-77
2022/10/20 03:57:32;;;;;;;0.97;0.90;;;12.70;87.00;;;;;;5007997;28;20195;-77
2022/10/20 03:59:59;;;;;;;1.00;1.00;;;12.70;87.10;;;;;;5008306;28;20204;-77
2022/10/20 04:02:34;;;;;;;2.73;1.30;;;12.70;87.10;;;;;;5009168;28;20191;-77
2022/10/20 04:05:01;;;;;;;1.03;0.93;;;12.60;87.00;;;;;;5004976;28;20219;-76
2022/10/20 04:07:28;;;;;;;0.77;0.77;;;12.60;87.10;;;;;;5008596;28;20204;-77
2022/10/20 04:09:56;;;;;;;1.20;1.10;;;12.60;87.40;;;;;;5009049;28;20729;-77
2022/10/20 04:12:25;;;;;;;1.97;1.23;;;12.60;87.40;;;;;;5009465;28;20661;-76
2022/10/20 04:14:52;;;;;;;1.67;1.07;;;12.50;87.40;;;;;;5008648;28;20222;-77
2022/10/20 04:17:20;;;;;;;1.07;0.97;;;12.60;87.60;;;;;;5009055;28;20200;-77
2022/10/20 04:19:47;;;;;;;0.80;0.80;;;12.60;87.50;;;;;;5008596;28;20211;-77
2022/10/20 04:22:14;;;;;;;0.90;0.80;;;12.60;87.30;;;;;;5009691;28;20187;-76
2022/10/20 04:24:41;;;;;;;1.03;0.93;;;12.60;87.60;;;;;;5006404;28;20612;-77
2022/10/20 04:27:09;;;;;;;1.57;1.20;;;12.60;87.30;;;;;;5007384;28;20193;-77
2022/10/20 04:29:37;;;;;;;2.83;1.10;;;12.60;87.20;;;;;;5011577;28;20218;-77
2022/10/20 04:32:05;;;;;;;2.40;1.30;;;12.60;87.30;;;;;;5009291;28;20210;-77
2022/10/20 04:34:32;;;;;;;0.90;0.90;;;12.60;87.30;;;;;;5007026;28;20211;-76
2022/10/20 04:36:59;;;;;;;1.40;1.30;;;12.50;87.20;;;;;;5011644;28;20413;-77
2022/10/20 04:39:27;;;;;;;0.90;0.90;;;12.50;87.20;;;;;;5012152;28;20200;-77
2022/10/20 04:41:54;;;;;;;0.80;0.80;;;12.50;87.20;;;;;;5009903;28;20254;-76
2022/10/20 04:44:21;;;;;;;0.93;0.90;;;12.50;87.50;;;;;;5008592;28;20566;-77
2022/10/20 04:46:50;;;;;;;1.83;1.10;;;12.50;87.30;;;;;;5010977;28;20318;-77
2022/10/20 04:49:17;;;;;;;0.73;0.73;;;12.50;87.50;;;;;;5008156;28;20195;-77
2022/10/20 04:51:44;;;;;;;1.80;0.90;;;12.50;87.50;;;;;;5012867;28;20286;-77
2022/10/20 04:54:11;;;;;;;1.10;0.93;;;12.50;87.50;;;;;;5008331;28;20672;-77
2022/10/20 04:56:39;;;;;;;1.30;1.10;;;12.50;87.50;;;;;;5010604;28;20563;-77
2022/10/20 04:59:06;;;;;;;1.17;1.03;;;12.50;87.50;;;;;;5007600;28;20236;-77
2022/10/20 05:01:33;;;;;;;0.97;0.90;;;12.50;87.50;;;;;;5011197;28;20212;-77
2022/10/20 05:04:02;;;;;;;1.03;0.90;;;12.40;87.40;;;;;;5005513;28;20228;-77
2022/10/20 05:06:31;;;;;;;0.90;0.90;;;12.40;87.60;;;;;;5012038;28;20286;-76
2022/10/20 05:08:59;;;;;;;1.00;0.90;;;12.40;87.50;;;;;;5009584;28;20691;-77
2022/10/20 05:11:29;;;;;;;1.03;0.90;;;12.40;87.50;;;;;;5011648;28;20227;-76
2022/10/20 05:13:56;;;;;;;1.03;0.73;;;12.30;87.40;;;;;;5012044;28;20214;-77
2022/10/20 05:16:24;;;;;;;0.90;0.70;;;12.30;87.40;;;;;;5011798;28;20258;-76
2022/10/20 05:18:52;;;;;;;0.90;0.90;;;12.00;87.10;;;;;;5009383;28;20262;-76
2022/10/20 05:21:22;;;;;;;1.77;0.90;;;12.30;87.50;;;;;;5011494;28;20207;-76
2022/10/20 05:23:55;;;;;;;1.60;1.10;;;12.30;87.30;;;;;;5009968;28;20629;-77
2022/10/20 05:26:22;;;;;;;2.07;1.27;;;12.30;87.30;;;;;;5012592;28;20195;-77
2022/10/20 05:28:51;;;;;;;1.63;1.20;;;12.30;87.30;;;;;;5008118;28;20663;-76
2022/10/20 05:31:22;;;;;;;1.17;1.07;;;12.30;87.20;;;;;;5010672;28;20248;-77
2022/10/20 05:33:51;;;;;;;1.07;0.97;;;12.30;87.10;;;;;;5008455;28;21015;-77
2022/10/20 05:36:23;;;;;;;1.83;1.40;;;12.30;87.10;;;;;;5010533;28;20215;-76
2022/10/20 05:38:51;;;;;;;1.70;1.10;;;12.30;87.10;;;;;;5010598;28;20253;-76
2022/10/20 05:41:21;;;;;;;2.63;1.23;;;12.30;87.20;;;;;;5009374;28;20203;-76
2022/10/20 05:43:49;;;;;;;1.73;1.07;;;12.20;87.10;;;;;;5008529;28;20627;-77
2022/10/20 05:46:17;;;;;;;2.20;1.43;;;12.20;87.90;;;;;;5008078;28;20204;-77
2022/10/20 05:48:45;;;;;;;1.27;1.07;;;12.20;87.20;;;;;;5008282;28;20204;-77
2022/10/20 05:51:14;;;;;;;1.33;1.23;;;12.50;87.70;;;;;;5011852;28;20273;-76
2022/10/20 05:53:43;;;;;;;0.90;0.90;;;12.30;87.30;;;;;;5011521;28;20675;-77
2022/10/20 05:56:12;;;;;;;1.70;1.20;;;12.30;87.40;;;;;;5009469;28;20678;-77
2022/10/20 05:58:40;;;;;;;1.63;1.10;;;12.30;87.40;;;;;;5010032;28;20280;-77
2022/10/20 06:01:09;;;;;;;3.20;1.40;;;12.20;87.30;;;;;;5012296;28;20299;-76
2022/10/20 06:03:37;;;;;;;1.20;1.10;;;12.20;87.40;;;;;;5010702;28;20637;-77
2022/10/20 06:06:05;;;;;;;1.43;1.10;;;12.20;87.40;;;;;;5010045;28;20199;-76
2022/10/20 06:08:33;;;;;;;1.20;1.07;;;12.20;87.40;;;;;;5009666;28;20271;-76
2022/10/20 06:11:04;;;;;;;1.90;1.10;;;12.20;87.30;;;;;;5010075;28;20199;-76
2022/10/20 06:13:32;;;;;;;2.53;1.37;;;12.30;87.40;;;;;;5008313;28;20647;-76
2022/10/20 06:16:04;;;;;;;1.83;1.30;;;12.30;87.40;;;;;;5010884;28;20203;-77
2022/10/20 06:18:32;;;;;;;1.77;1.67;;;12.30;87.30;;;;;;5005670;28;20649;-76
2022/10/20 06:21:01;;;;;;;1.30;1.20;;;12.30;87.30;;;;;;5006827;28;20279;-76
2022/10/20 06:23:29;;;;;;;1.23;1.13;;;12.20;87.10;;;;;;5008749;28;20605;-76
2022/10/20 06:26:01;;;;;;;2.37;1.27;;;12.20;87.40;;;;;;5009558;28;20199;-76
2022/10/20 06:28:31;;;;;;;2.17;1.20;;;12.20;87.20;;;;;;5007185;28;20579;-75
2022/10/20 06:30:59;;;;;;;3.23;1.07;;;12.20;87.20;;;;;;5010096;28;20278;-76
2022/10/20 06:33:30;;;;;;;2.00;1.13;;;12.20;87.40;;;;;;5007967;28;20195;-76
2022/10/20 06:36:00;;;;;;;1.10;1.10;;;12.10;87.30;;;;;;5007009;28;20645;-75
2022/10/20 06:38:27;;;;;;;0.90;0.90;;;12.20;87.50;;;;;;5009340;28;20187;-76
2022/10/20 06:40:55;;;;;;;1.40;1.30;;;12.20;87.50;;;;;;5007917;28;20273;-76
2022/10/20 06:43:22;;;;;;;1.30;1.17;;;12.10;87.40;;;;;;5008116;28;20615;-76
2022/10/20 06:45:58;;;;;;;1.83;1.03;;;12.10;87.30;;;;;;5007341;28;20212;-76
2022/10/20 06:48:26;;;;;;;1.10;1.10;;;12.30;87.60;;;;;;5009798;28;20195;-76
2022/10/20 06:50:57;;;;;;;1.63;1.43;;;12.10;87.40;;;;;;5007653;28;20200;-76
2022/10/20 06:53:24;;;;;;;6.13;1.60;;;12.10;87.30;;;;;;5007848;28;20198;-76
2022/10/20 06:55:58;;;;;;;1.60;1.50;;;12.20;87.40;;;;;;5008808;28;20185;-76
2022/10/20 06:58:27;;;;;;;1.73;1.30;;;12.10;87.30;;;;;;5010979;28;20210;-77
2022/10/20 07:01:03;;;;;;;1.40;1.30;;;12.20;87.40;;;;;;5008898;28;20277;-75
2022/10/20 07:03:32;;;;;;;3.10;1.20;;;12.20;87.30;;;;;;5007267;28;20229;-76
2022/10/20 07:06:00;;;;;;;1.03;1.03;;;12.20;87.20;;;;;;5009646;28;20202;-76
2022/10/20 07:08:28;;;;;;;2.67;1.47;;;12.20;87.20;;;;;;5009102;28;20190;-76
2022/10/20 07:11:01;;;;;;;2.30;1.20;;;12.30;87.30;;;;;;5010863;28;20279;-76
2022/10/20 07:13:28;;;;;;;1.10;1.00;;;12.30;87.20;;;;;;5006352;28;20265;-76
2022/10/20 07:15:59;;;;;;;1.57;1.30;;;12.40;87.10;;;;;;5009175;28;20199;-76
2022/10/20 07:18:29;;;;;;;1.60;1.10;;;12.70;87.30;;;;;;5007856;28;20299;-76
2022/10/20 07:20:57;;;;;;;2.40;1.37;;;12.50;86.90;;;;;;5010112;28;20279;-76
2022/10/20 07:23:25;;;;;;;1.47;1.37;;;12.50;86.70;;;;;;5007152;28;20222;-74
2022/10/20 07:25:53;;;;;;;1.50;1.40;;;12.60;86.70;;;;;;5008002;28;20207;-74
2022/10/20 07:28:21;;;;;;;1.27;1.13;;;12.70;86.70;;;;;;5007532;28;20740;-76
2022/10/20 07:30:48;;;;;;;1.17;1.07;;;12.70;86.80;;;;;;5005861;28;20203;-75
2022/10/20 07:33:15;;;;;;;1.20;1.10;;;12.70;86.60;;;;;;5007905;28;20207;-75
2022/10/20 07:35:44;;;;;;;0.90;0.90;;;12.80;86.70;;;;;;5007086;28;20297;-76
2022/10/20 07:38:11;;;;;;;2.03;0.80;;;12.80;86.60;;;;;;5007239;28;20195;-76
2022/10/20 07:40:39;;;;;;;0.80;0.80;;;12.80;86.40;;;;;;5010606;28;20687;-75
2022/10/20 07:43:06;;;;;;;1.10;1.00;;;12.90;86.20;;;;;;5007303;28;20196;-76
2022/10/20 07:45:33;;;;;;;0.80;0.80;;;12.90;86.00;;;;;;5006949;28;20197;-75
2022/10/20 07:48:02;;;;;;;1.10;1.00;;;13.00;86.00;;;;;;5004598;28;20215;-75
2022/10/20 07:50:29;;;;;;;0.80;0.80;;;13.00;85.80;;;;;;5006731;28;20310;-75
2022/10/20 07:52:57;;;;;;;0.87;0.87;;;13.00;85.70;;;;;;5006375;28;20296;-75
2022/10/20 07:55:25;;;;;;;1.50;1.00;;;13.00;85.50;;;;;;5006603;28;20215;-76
2022/10/20 07:57:54;;;;;;;1.07;0.90;;;13.50;86.00;;;;;;5007408;28;20267;-75
2022/10/20 08:00:22;;;;;;;0.70;0.70;;;13.10;85.50;;;;;;5007706;28;20295;-75
2022/10/20 08:02:49;;;;;;;1.47;0.77;;;13.10;85.50;;;;;;5006926;28;20235;-75
2022/10/20 08:05:16;;;;;;;0.80;0.80;;;13.10;85.50;;;;;;5009579;28;20909;-75
2022/10/20 08:08:12;;;;;;;1.23;0.90;;;13.20;85.60;;;;;;5008033;28;20237;-76
2022/10/20 08:13:50;;;;;;;0.93;0.93;;;13.60;86.20;;;;;;4987526;28;20306;-76
2022/10/20 08:16:18;;;;;;;0.80;0.80;;;13.30;85.30;;;;;;5009188;28;20301;-75
2022/10/20 08:18:45;;;;;;;0.80;0.80;;;13.30;85.20;;;;;;5005261;28;20260;-76
2022/10/20 08:21:15;;;;;;;1.17;0.87;;;13.30;85.30;;;;;;5007582;28;20307;-76
2022/10/20 08:23:46;;;;;;;0.90;0.90;;;13.30;85.40;;;;;;5008037;28;20204;-76
2022/10/20 08:26:18;;;;;;;0.80;0.80;;;13.40;85.40;;;;;;5006964;28;20206;-77
2022/10/20 08:28:45;;;;;;;1.00;0.80;;;13.40;85.10;;;;;;5007162;28;20234;-76
2022/10/20 08:31:12;;;;;;;0.70;0.70;;;13.40;84.90;;;;;;5009443;28;20197;-77
2022/10/20 08:33:39;;;;;;;0.90;0.90;;;13.50;84.90;;;;;;5006825;28;20200;-76
2022/10/20 08:36:09;;;;;;;1.17;0.80;;;13.50;85.60;;;;;;5008821;28;20188;-75
2022/10/20 08:38:37;;;;;;;0.90;0.90;;;13.50;85.00;;;;;;5006511;28;20208;-76
2022/10/20 08:41:12;;;;;;;2.20;1.00;;;13.50;84.80;;;;;;5006686;28;20219;-76
2022/10/20 08:43:42;;;;;;;0.80;0.80;;;13.50;84.60;;;;;;5008068;28;20283;-76
2022/10/20 08:46:14;;;;;;;0.70;0.70;;;13.40;84.70;;;;;;5005733;28;20197;-76
2022/10/20 08:48:42;;;;;;;0.63;0.63;;;13.50;84.60;;;;;;5005898;28;20426;-76
2022/10/20 08:51:17;;;;;;;0.93;0.90;;;13.50;84.50;;;;;;5006337;28;20209;-76
2022/10/20 08:53:45;;;;;;;0.80;0.80;;;13.50;84.40;;;;;;5021330;28;20214;-77
2022/10/20 08:56:15;;;;;;;0.83;0.83;;;13.60;84.40;;;;;;5006046;28;20303;-77
2022/10/20 08:58:43;;;;;;;0.87;0.87;;;13.60;84.30;;;;;;5004881;28;20283;-76
2022/10/20 09:01:19;;;;;;;1.23;0.80;;;13.70;84.20;;;;;;5008109;28;20720;-76
2022/10/20 09:03:50;;;;;;;0.60;0.60;;;13.70;84.00;;;;;;5004722;28;20659;-76
2022/10/20 09:06:17;;;;;;;0.73;0.70;;;13.80;84.00;;;;;;5006769;28;20208;-76
2022/10/20 09:08:45;;;;;;;0.70;0.70;;;13.80;83.80;;;;;;5007549;28;20200;-76
2022/10/20 09:11:19;;;;;;;2.53;0.90;;;13.90;83.70;;;;;;5007746;28;20209;-76
2022/10/20 09:13:46;;;;;;;1.63;0.60;;;14.00;84.40;;;;;;5007156;28;20203;-76
2022/10/20 09:16:23;;;;;;;0.70;0.70;;;14.00;83.60;;;;;;5012608;28;20307;-76
2022/10/20 09:18:55;;;;;;;0.70;0.70;;;14.10;83.30;;;;;;5009955;28;20552;-77
2022/10/20 09:21:23;;;;;;;0.70;0.70;;;14.20;83.10;;;;;;5012476;28;20250;-77
2022/10/20 09:23:53;;;;;;;1.10;1.00;;;14.30;82.90;;;;;;5010562;28;20190;-76
2022/10/20 09:26:23;;;;;;;0.73;0.73;;;14.40;83.40;;;;;;5009157;28;20199;-77
2022/10/20 09:29:02;;;;;;;0.60;0.60;;;14.40;82.40;;;;;;5010568;28;20204;-76
2022/10/20 09:31:33;;;;;;;1.97;0.80;;;14.50;82.40;;;;;;5013065;28;20629;-76
2022/10/20 09:34:01;;;;;;;1.03;1.03;;;14.50;82.20;;;;;;5006587;28;20198;-77
2022/10/20 09:36:33;;;;;;;1.40;0.87;;;14.50;82.00;;;;;;5010797;28;20196;-77
2022/10/20 09:39:01;;;;;;;1.47;0.97;;;14.50;81.90;;;;;;5010316;28;20191;-77
2022/10/20 09:41:32;;;;;;;0.70;0.70;;;14.50;81.80;;;;;;5009816;28;20283;-77
2022/10/20 09:44:02;;;;;;;0.87;0.80;;;14.50;81.50;;;;;;5009923;28;20202;-77
2022/10/20 09:46:34;;;;;;;0.87;0.67;;;14.50;81.50;;;;;;5010365;28;20293;-77
2022/10/20 09:49:02;;;;;;;0.60;0.60;;;14.50;81.80;;;;;;5010884;28;20189;-77
2022/10/20 09:51:30;;;;;;;1.07;0.97;;;14.60;81.90;;;;;;5011243;28;20232;-78
2022/10/20 09:54:01;;;;;;;0.80;0.80;;;14.70;81.60;;;;;;5009586;28;20225;-77
2022/10/20 09:56:33;;;;;;;0.67;0.60;;;14.70;80.90;;;;;;5010512;28;20209;-75
2022/10/20 09:59:02;;;;;;;0.53;0.53;;;14.70;80.70;;;;;;5010183;28;20195;-77
2022/10/20 10:01:30;;;;;;;0.50;0.50;;;14.60;80.60;;;;;;5011602;28;20278;-75
2022/10/20 10:04:00;;;;;;;0.50;0.50;;;14.60;80.70;;;;;;5010702;28;20240;-78
2022/10/20 10:06:40;;;;;;;0.53;0.53;;;14.60;80.60;;;;;;5011412;28;20193;-76
2022/10/20 10:09:25;;;;;;;0.50;0.50;;;14.60;80.70;;;;;;5008215;28;20670;-76
2022/10/20 10:11:59;;;;;;;0.83;0.60;;;14.70;81.40;;;;;;5011921;28;20190;-76
2022/10/20 10:14:27;;;;;;;0.63;0.60;;;14.70;80.40;;;;;;5009855;28;20667;-76
2022/10/20 10:16:54;;;;;;;0.80;0.80;;;14.70;80.60;;;;;;5008965;28;20213;-76
2022/10/20 10:19:25;;;;;;;0.60;0.60;;;14.70;80.40;;;;;;5008590;28;20288;-76
2022/10/20 10:21:56;;;;;;;0.93;0.70;;;14.60;80.30;;;;;;5009994;28;20254;-76
2022/10/20 10:24:46;;;;;;;0.60;0.60;;;14.60;80.30;;;;;;5007914;28;20253;-76
2022/10/20 10:27:24;;;;;;;0.60;0.60;;;14.60;80.60;;;;;;5001649;28;20237;-75
2022/10/20 10:29:52;;;;;;;0.63;0.50;;;14.60;80.10;;;;;;5009887;28;20262;-76
2022/10/20 10:32:24;;;;;;;1.00;0.53;;;14.60;81.10;;;;;;5011245;28;20201;-76
2022/10/20 10:35:09;;;;;;;0.50;0.50;;;14.60;80.00;;;;;;5006499;28;20282;-76
2022/10/20 10:37:38;;;;;;;1.53;0.70;;;14.60;80.00;;;;;;5009199;28;20198;-76
2022/10/20 10:40:14;;;;;;;0.70;0.70;;;14.60;79.90;;;;;;5010783;28;20678;-76
2022/10/20 10:43:15;;;;;;;0.80;0.80;;;14.50;79.60;;;;;;5010442;28;20738;-76
2022/10/20 10:45:48;;;;;;;0.60;0.60;;;14.50;80.00;;;;;;5008072;28;20187;-76
2022/10/20 10:48:39;;;;;;;0.57;0.57;;;14.50;80.00;;;;;;5010219;28;20214;-76
2022/10/20 10:51:10;;;;;;;0.50;0.50;;;14.50;79.70;;;;;;5007407;28;20658;-76
2022/10/20 10:53:51;;;;;;;0.80;0.60;;;14.50;79.40;;;;;;5007073;28;21064;-76
2022/10/20 10:56:29;;;;;;;0.60;0.60;;;14.60;79.00;;;;;;5006176;28;20309;-76
2022/10/20 10:59:04;;;;;;;0.60;0.60;;;14.50;78.30;;;;;;5010527;28;20650;-76
2022/10/20 11:02:03;;;;;;;1.73;0.73;;;14.60;78.60;;;;;;5010642;28;20426;-76
2022/10/20 11:05:05;;;;;;;0.60;0.60;;;14.60;78.60;;;;;;5009349;28;20226;-76
2022/10/20 11:07:41;;;;;;;1.33;0.80;;;14.70;78.80;;;;;;5008639;28;20194;-75
2022/10/20 11:10:16;;;;;;;0.60;0.60;;;14.70;78.60;;;;;;5009690;28;20606;-76
2022/10/20 11:13:18;;;;;;;0.53;0.53;;;14.80;78.60;;;;;;5008587;28;20294;-76
2022/10/20 11:16:12;;;;;;;0.77;0.70;;;14.90;78.60;;;;;;5005659;28;20203;-76
2022/10/20 11:19:03;;;;;;;0.53;0.53;;;14.90;78.50;;;;;;5018764;28;20211;-76
2022/10/20 11:21:39;;;;;;;0.77;0.77;;;14.90;78.50;;;;;;5008899;28;20679;-76
2022/10/20 11:24:22;;;;;;;1.10;0.60;;;14.90;78.00;;;;;;5007136;28;20218;-76
2022/10/20 11:26:53;;;;;;;1.30;0.60;;;14.90;77.90;;;;;;5008230;28;20683;-77
2022/10/20 11:29:31;;;;;;;0.70;0.60;;;14.90;77.90;;;;;;5012796;28;20187;-77
2022/10/20 11:32:11;;;;;;;0.60;0.60;;;14.90;77.80;;;;;;5005006;28;20297;-77
2022/10/20 11:34:46;;;;;;;0.73;0.73;;;15.00;77.70;;;;;;5008944;28;20261;-77
2022/10/20 11:37:21;;;;;;;0.60;0.60;;;15.00;77.10;;;;;;5010864;28;20236;-77
2022/10/20 11:39:55;;;;;;;0.60;0.60;;;15.10;77.20;;;;;;5007288;28;20213;-77
2022/10/20 11:42:30;;;;;;;2.00;0.90;;;15.10;77.10;;;;;;5008077;28;20218;-77
2022/10/20 11:45:01;;;;;;;0.80;0.80;;;15.10;76.50;;;;;;5008611;28;20202;-77
2022/10/20 11:47:36;;;;;;;0.57;0.57;;;15.10;76.70;;;;;;5009348;28;20206;-77
2022/10/20 11:50:06;;;;;;;0.80;0.80;;;15.10;76.40;;;;;;5007175;28;20201;-77
2022/10/20 11:53:00;;;;;;;0.80;0.80;;;15.10;76.80;;;;;;5011415;28;20710;-75
2022/10/20 11:55:43;;;;;;;0.93;0.90;;;15.10;76.60;;;;;;5005149;28;20654;-78
2022/10/20 11:58:55;;;;;;;0.70;0.70;;;15.10;76.50;;;;;;5009105;28;20214;-76
2022/10/20 12:01:33;;;;;;;0.80;0.80;;;15.10;76.30;;;;;;4940444;28;20244;-76
2022/10/20 12:04:34;;;;;;;0.60;0.60;;;15.10;76.90;;;;;;5009714;28;20254;-76
2022/10/20 12:07:31;;;;;;;1.00;0.90;;;15.00;76.10;;;;;;5010356;28;20724;-76
2022/10/20 12:10:28;;;;;;;0.77;0.77;;;15.00;76.10;;;;;;4986602;28;20206;-76
2022/10/20 12:13:02;;;;;;;1.00;1.00;;;15.00;76.10;;;;;;5007413;28;20195;-77
2022/10/20 12:15:30;;;;;;;1.13;0.80;;;15.00;76.00;;;;;;5007846;28;20190;-78
2022/10/20 12:18:03;;;;;;;0.50;0.50;;;15.00;75.90;;;;;;5008620;28;20655;-76
2022/10/20 12:20:55;;;;;;;0.50;0.50;;;15.00;75.90;;;;;;5007689;28;20206;-77
2022/10/20 12:24:01;;;;;;;0.50;0.50;;;15.00;75.70;;;;;;5006896;28;20218;-76
2022/10/20 12:26:54;;;;;;;0.60;0.60;;;15.00;75.50;;;;;;5006327;28;20298;-77
2022/10/20 12:29:51;;;;;;;0.67;0.60;;;15.10;75.60;;;;;;5002482;28;20210;-77
2022/10/20 12:32:43;;;;;;;1.27;0.90;;;15.10;75.60;;;;;;5007178;28;20195;-76
2022/10/20 12:35:53;;;;;;;1.33;0.80;;;15.00;75.10;;;;;;5009175;28;20253;-76
2022/10/20 12:38:23;;;;;;;2.03;0.67;;;14.90;74.60;;;;;;5004995;28;20195;-76
2022/10/20 12:40:56;;;;;;;3.50;1.00;;;14.90;75.00;;;;;;5006957;28;20229;-76
2022/10/20 12:43:33;;;;;;;4.67;1.10;;;14.50;75.00;;;;;;5009243;28;20235;-76
2022/10/20 12:46:07;;;;;;;0.80;0.80;;;14.90;75.60;;;;;;5007308;28;20209;-76
2022/10/20 12:48:45;;;;;;;0.93;0.93;;;14.80;75.40;;;;;;5009260;28;20198;-77
2022/10/20 12:51:27;;;;;;;2.70;1.00;;;14.80;75.40;;;;;;5013216;28;20191;-76
2022/10/20 12:54:00;;;;;;;0.77;0.67;;;14.80;75.60;;;;;;5011197;28;20198;-77
2022/10/20 12:56:33;;;;;;;0.83;0.80;;;14.70;75.10;;;;;;5008533;28;20251;-77
2022/10/20 12:59:45;;;;;;;0.87;0.87;;;14.70;75.30;;;;;;5007432;28;20516;-76
2022/10/20 13:02:47;;;;;;;1.20;0.83;;;14.70;75.30;;;;;;5010051;28;20229;-76
2022/10/20 13:05:53;;;;;;;0.80;0.80;;;14.80;75.60;;;;;;5010847;28;20329;-76
2022/10/20 13:08:29;;;;;;;0.80;0.80;;;14.90;75.50;;;;;;5014122;28;20190;-76
2022/10/20 13:11:48;;;;;;;0.80;0.70;;;15.00;75.40;;;;;;5013433;28;20280;-76
2022/10/20 13:14:59;;;;;;;1.00;0.90;;;15.00;75.30;;;;;;4969519;28;20219;-77
2022/10/20 13:17:48;;;;;;;0.97;0.90;;;15.00;74.70;;;;;;5011582;28;20206;-76
2022/10/20 13:20:25;;;;;;;1.70;0.80;;;14.90;74.30;;;;;;5008098;28;20206;-76